Time;durP1;ratioP1;P1;durP2;ratioP2;P2;SDS_P1;SDS_P2;PMS_P1;PMS_P2;Temp;Humidity;BMP_temperature;BMP_pressure;BME280_temperature;BME280_humidity;BME280_pressure;Samples;Min_cycle;Max_cycle;Signal;HPM_P1;HPM_P2
2022/11/29 00:00:40;;;;;;;10.15;2.92;;;;;;;;;;4997496;28;20470;-31
2022/11/29 00:03:06;;;;;;;9.68;4.22;;;;;;;;;;4997034;28;20100;-31
2022/11/29 00:05:35;;;;;;;11.93;3.95;;;;;;;;;;4997155;28;20034;-31
2022/11/29 00:08:02;;;;;;;11.30;2.95;;;;;;;;;;4997072;28;20038;-32
2022/11/29 00:10:28;;;;;;;15.13;2.55;;;;;;;;;;4996952;28;20034;-32
2022/11/29 00:12:54;;;;;;;11.52;2.80;;;;;;;;;;4997222;28;20057;-32
2022/11/29 00:15:20;;;;;;;10.82;2.42;;;;;;;;;;4996699;28;20036;-31
2022/11/29 00:17:46;;;;;;;17.10;4.85;;;;;;;;;;4996910;28;20030;-32
2022/11/29 00:20:13;;;;;;;16.58;3.53;;;;;;;;;;4997140;28;20440;-32
2022/11/29 00:22:39;;;;;;;5.88;2.38;;;;;;;;;;4996272;28;20038;-32
2022/11/29 00:25:06;;;;;;;13.93;3.10;;;;;;;;;;4996717;28;20022;-32
2022/11/29 00:27:32;;;;;;;13.55;4.07;;;;;;;;;;4996728;28;20030;-32
2022/11/29 00:29:58;;;;;;;8.65;2.33;;;;;;;;;;4996873;28;20034;-31
2022/11/29 00:32:24;;;;;;;15.43;3.42;;;;;;;;;;4996593;28;20073;-31
2022/11/29 00:34:51;;;;;;;14.77;3.67;;;;;;;;;;4996603;28;20053;-32
2022/11/29 00:37:17;;;;;;;12.40;3.05;;;;;;;;;;4997084;28;20026;-32
2022/11/29 00:39:43;;;;;;;16.38;3.72;;;;;;;;;;4996741;28;20034;-32
2022/11/29 00:42:09;;;;;;;16.73;3.70;;;;;;;;;;4994860;28;20053;-32
2022/11/29 00:44:35;;;;;;;8.13;3.13;;;;;;;;;;4996674;28;20030;-32
2022/11/29 00:47:01;;;;;;;13.55;2.83;;;;;;;;;;4996390;28;20030;-31
2022/11/29 00:49:28;;;;;;;13.70;2.95;;;;;;;;;;4996554;28;20069;-32
2022/11/29 00:51:54;;;;;;;12.18;3.15;;;;;;;;;;4996144;28;20042;-31
2022/11/29 00:54:20;;;;;;;12.98;2.92;;;;;;;;;;4995290;28;20488;-32
2022/11/29 00:56:46;;;;;;;12.25;2.67;;;;;;;;;;4995236;28;20491;-31
2022/11/29 00:59:12;;;;;;;11.00;2.78;;;;;;;;;;4996080;28;20041;-32
2022/11/29 01:01:38;;;;;;;13.05;3.03;;;;;;;;;;4996061;28;20057;-31
2022/11/29 01:04:04;;;;;;;12.40;3.33;;;;;;;;;;4995984;28;20469;-31
2022/11/29 01:06:30;;;;;;;17.85;3.00;;;;;;;;;;4995032;28;20033;-31
2022/11/29 01:08:57;;;;;;;11.63;3.17;;;;;;;;;;4995948;28;20026;-31
2022/11/29 01:11:24;;;;;;;16.00;3.40;;;;;;;;;;4995854;28;20092;-32
2022/11/29 01:13:51;;;;;;;9.55;3.03;;;;;;;;;;4996293;28;20319;-31
2022/11/29 01:16:17;;;;;;;9.88;2.40;;;;;;;;;;4996327;28;20092;-32
2022/11/29 01:18:44;;;;;;;10.23;2.90;;;;;;;;;;4996040;28;20026;-32
2022/11/29 01:21:13;;;;;;;8.55;3.63;;;;;;;;;;4995764;28;20039;-32
2022/11/29 01:23:40;;;;;;;6.97;3.13;;;;;;;;;;4995943;28;20442;-31
2022/11/29 01:26:11;;;;;;;11.75;2.97;;;;;;;;;;4995692;28;20026;-32
2022/11/29 01:28:38;;;;;;;12.75;2.63;;;;;;;;;;4995916;28;20096;-31
2022/11/29 01:31:08;;;;;;;17.33;4.10;;;;;;;;;;4995814;28;20109;-31
2022/11/29 01:33:35;;;;;;;11.50;3.17;;;;;;;;;;4995729;28;20033;-32
2022/11/29 01:36:01;;;;;;;16.67;3.38;;;;;;;;;;4996061;28;20085;-32
2022/11/29 01:38:27;;;;;;;13.80;3.67;;;;;;;;;;4995764;28;20037;-32
2022/11/29 01:41:12;;;;;;;12.10;2.75;;;;;;;;;;4995697;28;20041;-32
2022/11/29 01:44:11;;;;;;;11.90;3.42;;;;;;;;;;4994368;28;20031;-31
2022/11/29 01:46:39;;;;;;;14.52;3.30;;;;;;;;;;4942285;28;20034;-31
2022/11/29 01:49:10;;;;;;;10.80;3.47;;;;;;;;;;4995256;28;20030;-33
2022/11/29 01:51:37;;;;;;;9.48;2.58;;;;;;;;;;4995660;28;20022;-33
2022/11/29 01:54:03;;;;;;;12.80;3.13;;;;;;;;;;4995247;28;20100;-32
2022/11/29 01:56:30;;;;;;;8.52;2.78;;;;;;;;;;4994397;28;20041;-31
2022/11/29 01:58:56;;;;;;;7.38;2.45;;;;;;;;;;4995517;28;20038;-32
2022/11/29 02:01:23;;;;;;;9.80;2.42;;;;;;;;;;4995477;28;20420;-32
2022/11/29 02:03:49;;;;;;;9.98;2.50;;;;;;;;;;4995123;28;20050;-37
2022/11/29 02:06:15;;;;;;;9.60;2.65;;;;;;;;;;4995423;28;20034;-32
2022/11/29 02:08:43;;;;;;;8.52;2.80;;;;;;;;;;4995675;28;20053;-32
2022/11/29 02:11:10;;;;;;;28.85;4.38;;;;;;;;;;4995325;28;20042;-31
2022/11/29 02:13:47;;;;;;;9.88;2.88;;;;;;;;;;4995052;28;20023;-32
2022/11/29 02:16:26;;;;;;;12.10;2.70;;;;;;;;;;4995081;28;20048;-32
2022/11/29 02:19:18;;;;;;;14.50;3.33;;;;;;;;;;4995069;28;20462;-31
2022/11/29 02:21:51;;;;;;;9.07;2.67;;;;;;;;;;4957787;28;20088;-31
2022/11/29 02:24:20;;;;;;;9.20;2.63;;;;;;;;;;4994941;28;20061;-32
2022/11/29 02:27:03;;;;;;;5.90;2.95;;;;;;;;;;4994971;28;20050;-31
2022/11/29 02:30:04;;;;;;;17.92;3.60;;;;;;;;;;4995187;28;20088;-31
2022/11/29 02:32:49;;;;;;;10.55;3.45;;;;;;;;;;4916471;29;20367;-32
2022/11/29 02:35:15;;;;;;;11.60;3.13;;;;;;;;;;4989398;28;20527;-32
2022/11/29 02:37:44;;;;;;;15.93;4.43;;;;;;;;;;4994926;28;20031;-31
2022/11/29 02:40:22;;;;;;;9.05;3.22;;;;;;;;;;4995182;28;20022;-31
2022/11/29 02:42:48;;;;;;;6.63;2.83;;;;;;;;;;4995122;28;20026;-31
2022/11/29 02:45:25;;;;;;;6.95;2.55;;;;;;;;;;4994921;28;20058;-31
2022/11/29 02:47:54;;;;;;;9.23;3.03;;;;;;;;;;4995439;28;20173;-32
2022/11/29 02:50:43;;;;;;;14.07;3.65;;;;;;;;;;4994768;28;20359;-31
2022/11/29 02:53:20;;;;;;;11.05;2.67;;;;;;;;;;4995006;28;20440;-32
2022/11/29 02:55:51;;;;;;;10.68;2.58;;;;;;;;;;4993954;28;20428;-31
2022/11/29 02:58:17;;;;;;;10.00;2.17;;;;;;;;;;4995332;28;20023;-31
2022/11/29 03:00:53;;;;;;;7.90;2.55;;;;;;;;;;4994653;28;20042;-31
2022/11/29 03:03:25;;;;;;;7.32;2.85;;;;;;;;;;4994576;28;20038;-32
2022/11/29 03:05:51;;;;;;;14.15;2.95;;;;;;;;;;4998544;28;20453;-32
2022/11/29 03:08:23;;;;;;;6.47;2.42;;;;;;;;;;4998553;28;20030;-31
2022/11/29 03:10:56;;;;;;;9.70;2.90;;;;;;;;;;4998087;28;20044;-32
2022/11/29 03:13:34;;;;;;;11.82;3.80;;;;;;;;;;4998209;28;20030;-32
2022/11/29 03:16:07;;;;;;;8.20;2.72;;;;;;;;;;4998410;28;20033;-32
2022/11/29 03:18:54;;;;;;;8.63;2.55;;;;;;;;;;4998337;28;20022;-31
2022/11/29 03:21:41;;;;;;;13.07;2.63;;;;;;;;;;4985122;28;20393;-32
2022/11/29 03:24:20;;;;;;;10.77;3.50;;;;;;;;;;4997870;28;20110;-32
2022/11/29 03:26:52;;;;;;;8.18;2.55;;;;;;;;;;4998423;28;20116;-31
2022/11/29 03:29:26;;;;;;;8.77;3.30;;;;;;;;;;4998506;28;20105;-31
2022/11/29 03:31:56;;;;;;;11.88;4.68;;;;;;;;;;4997712;28;20049;-32
2022/11/29 03:34:29;;;;;;;9.77;2.93;;;;;;;;;;4996879;28;20093;-31
2022/11/29 03:37:21;;;;;;;9.18;2.90;;;;;;;;;;4997709;28;20027;-31
2022/11/29 03:39:52;;;;;;;8.32;3.17;;;;;;;;;;4994234;28;20034;-31
2022/11/29 03:42:28;;;;;;;9.23;3.00;;;;;;;;;;4997828;28;20080;-31
2022/11/29 03:45:14;;;;;;;17.13;3.78;;;;;;;;;;4997557;28;20436;-31
2022/11/29 03:48:01;;;;;;;7.55;2.67;;;;;;;;;;4984227;28;20409;-31
2022/11/29 03:50:31;;;;;;;5.68;1.90;;;;;;;;;;4997351;28;20058;-31
2022/11/29 03:53:10;;;;;;;6.38;3.03;;;;;;;;;;4997399;28;20142;-32
2022/11/29 03:55:48;;;;;;;9.48;2.75;;;;;;;;;;4997670;28;20030;-31
2022/11/29 03:58:23;;;;;;;7.00;2.38;;;;;;;;;;4996433;28;20054;-31
2022/11/29 04:00:49;;;;;;;7.60;2.88;;;;;;;;;;4997592;28;20034;-31
2022/11/29 04:03:15;;;;;;;7.65;2.97;;;;;;;;;;4997167;28;20057;-31
2022/11/29 04:05:41;;;;;;;6.80;2.55;;;;;;;;;;4997178;28;20365;-30
2022/11/29 04:08:27;;;;;;;5.88;2.63;;;;;;;;;;4997403;28;20335;-31
2022/11/29 04:11:08;;;;;;;5.20;1.92;;;;;;;;;;4996924;28;20074;-31
2022/11/29 04:13:46;;;;;;;8.73;3.10;;;;;;;;;;4996967;28;20037;-31
2022/11/29 04:16:21;;;;;;;10.15;4.32;;;;;;;;;;4995922;28;20105;-31
2022/11/29 04:19:02;;;;;;;8.65;2.95;;;;;;;;;;4997223;28;20369;-30
2022/11/29 04:21:47;;;;;;;10.77;2.50;;;;;;;;;;4997207;28;20031;-31
2022/11/29 04:24:16;;;;;;;8.57;3.80;;;;;;;;;;4996846;28;20034;-31
2022/11/29 04:26:45;;;;;;;9.20;4.72;;;;;;;;;;4996820;28;20500;-31
2022/11/29 04:29:17;;;;;;;7.88;2.85;;;;;;;;;;4996679;28;20041;-31
2022/11/29 04:32:02;;;;;;;9.18;2.60;;;;;;;;;;4996577;28;20038;-31
2022/11/29 04:34:45;;;;;;;8.07;2.40;;;;;;;;;;4996926;28;20444;-31
2022/11/29 04:37:45;;;;;;;11.32;2.80;;;;;;;;;;4996820;28;20045;-31
2022/11/29 04:40:11;;;;;;;9.10;3.08;;;;;;;;;;4996522;28;20034;-31
2022/11/29 04:42:47;;;;;;;8.55;2.53;;;;;;;;;;4996808;28;20437;-31
2022/11/29 04:45:13;;;;;;;6.53;3.10;;;;;;;;;;4996946;28;20038;-31
2022/11/29 04:48:02;;;;;;;4.70;3.30;;;;;;;;;;4996604;28;20054;-31
2022/11/29 04:50:37;;;;;;;8.88;3.75;;;;;;;;;;4996694;28;20030;-32
2022/11/29 04:53:13;;;;;;;8.52;2.28;;;;;;;;;;4995124;28;20041;-31
2022/11/29 04:55:49;;;;;;;5.47;2.58;;;;;;;;;;4996071;28;20027;-31
2022/11/29 04:58:21;;;;;;;7.28;2.75;;;;;;;;;;4996011;28;20069;-32
2022/11/29 05:00:50;;;;;;;6.90;3.03;;;;;;;;;;4996297;28;20081;-31
2022/11/29 05:03:20;;;;;;;5.85;3.17;;;;;;;;;;4995674;28;20164;-31
2022/11/29 05:05:50;;;;;;;8.75;2.65;;;;;;;;;;4996223;28;20054;-30
2022/11/29 05:08:35;;;;;;;5.53;2.15;;;;;;;;;;4995938;28;20437;-30
2022/11/29 05:11:21;;;;;;;10.23;3.00;;;;;;;;;;4995647;28;20046;-31
2022/11/29 05:13:56;;;;;;;4.95;2.30;;;;;;;;;;4994786;28;20030;-31
2022/11/29 05:16:31;;;;;;;7.45;2.70;;;;;;;;;;4996105;28;20054;-31
2022/11/29 05:19:15;;;;;;;5.75;2.42;;;;;;;;;;4995711;28;20113;-31
2022/11/29 05:21:46;;;;;;;7.22;2.20;;;;;;;;;;4995605;28;20025;-31
2022/11/29 05:24:12;;;;;;;;;;;;;;;;;;4995108;28;20037;-30
2022/11/29 05:26:41;;;;;;;7.20;2.60;;;;;;;;;;4995410;28;20339;-31
2022/11/29 05:29:11;;;;;;;6.45;2.20;;;;;;;;;;4994587;28;20034;-31
2022/11/29 05:31:55;;;;;;;7.45;3.03;;;;;;;;;;4996239;28;20049;-31
2022/11/29 05:34:21;;;;;;;8.18;2.85;;;;;;;;;;4995964;28;20101;-32
2022/11/29 05:37:00;;;;;;;5.45;2.55;;;;;;;;;;4995297;28;20035;-31
2022/11/29 05:39:35;;;;;;;7.30;2.42;;;;;;;;;;4995837;28;20022;-31
2022/11/29 05:42:17;;;;;;;11.15;2.60;;;;;;;;;;4995436;28;20026;-31
2022/11/29 05:44:54;;;;;;;9.50;3.35;;;;;;;;;;4995732;28;20069;-30
2022/11/29 05:47:23;;;;;;;8.70;3.58;;;;;;;;;;4995541;28;20029;-31
2022/11/29 05:50:01;;;;;;;5.97;2.33;;;;;;;;;;4996097;28;20035;-31
2022/11/29 05:52:46;;;;;;;4.97;2.42;;;;;;;;;;4995661;28;20027;-30
2022/11/29 05:55:18;;;;;;;8.70;3.38;;;;;;;;;;4995889;28;20073;-30
2022/11/29 05:57:53;;;;;;;8.25;2.30;;;;;;;;;;4995060;28;20022;-30
2022/11/29 06:00:20;;;;;;;7.80;3.40;;;;;;;;;;4995223;28;20365;-31
2022/11/29 06:02:52;;;;;;;8.98;2.67;;;;;;;;;;4994839;28;20104;-31
2022/11/29 06:05:22;;;;;;;5.72;2.35;;;;;;;;;;4995030;28;20089;-31
2022/11/29 06:08:07;;;;;;;8.05;3.88;;;;;;;;;;4995222;28;20034;-32
2022/11/29 06:10:36;;;;;;;5.65;3.03;;;;;;;;;;4993952;28;20031;-31
2022/11/29 06:13:11;;;;;;;12.05;3.03;;;;;;;;;;4994871;28;20018;-32
2022/11/29 06:15:56;;;;;;;10.27;3.70;;;;;;;;;;4994925;28;20453;-32
2022/11/29 06:18:48;;;;;;;7.63;2.90;;;;;;;;;;4995565;28;20442;-31
2022/11/29 06:21:21;;;;;;;13.35;2.63;;;;;;;;;;4957978;28;20042;-31
2022/11/29 06:24:10;;;;;;;9.13;2.65;;;;;;;;;;4995545;28;20026;-31
2022/11/29 06:26:36;;;;;;;9.40;2.35;;;;;;;;;;4995070;28;20030;-31
2022/11/29 06:29:05;;;;;;;9.32;3.65;;;;;;;;;;4995096;28;20033;-31
2022/11/29 06:31:36;;;;;;;8.68;3.28;;;;;;;;;;4993704;28;20042;-31
2022/11/29 06:34:09;;;;;;;6.95;3.22;;;;;;;;;;4994939;28;20038;-31
2022/11/29 06:36:47;;;;;;;13.20;2.60;;;;;;;;;;4994760;28;20027;-29
2022/11/29 06:39:13;;;;;;;7.88;4.22;;;;;;;;;;4995984;28;20465;-30
2022/11/29 06:41:39;;;;;;;9.93;3.00;;;;;;;;;;4998916;28;20026;-32
2022/11/29 06:44:06;;;;;;;9.25;3.33;;;;;;;;;;4998546;28;20026;-31
2022/11/29 06:46:38;;;;;;;7.65;3.00;;;;;;;;;;4999268;28;20034;-31
2022/11/29 06:49:22;;;;;;;7.20;2.78;;;;;;;;;;4998541;28;20022;-31
2022/11/29 06:51:51;;;;;;;10.75;3.05;;;;;;;;;;4999137;28;20034;-31
2022/11/29 06:54:28;;;;;;;6.90;3.47;;;;;;;;;;4998384;28;20029;-31
2022/11/29 06:57:00;;;;;;;11.68;3.30;;;;;;;;;;4998578;28;20476;-30
2022/11/29 06:59:33;;;;;;;5.68;3.25;;;;;;;;;;4998630;28;20105;-31
2022/11/29 07:02:04;;;;;;;10.15;3.70;;;;;;;;;;4998104;28;20031;-31
2022/11/29 07:04:33;;;;;;;8.73;2.90;;;;;;;;;;4998369;28;20034;-31
2022/11/29 07:07:00;;;;;;;7.90;3.50;;;;;;;;;;4998032;28;20046;-30
2022/11/29 07:09:30;;;;;;;13.82;3.88;;;;;;;;;;4997871;28;20037;-31
2022/11/29 07:11:56;;;;;;;7.80;2.72;;;;;;;;;;4997644;28;20084;-31
2022/11/29 07:14:22;;;;;;;9.60;2.88;;;;;;;;;;4996935;28;20038;-31
2022/11/29 07:16:57;;;;;;;10.13;3.28;;;;;;;;;;4997755;28;20035;-30
2022/11/29 07:19:23;;;;;;;8.75;2.90;;;;;;;;;;4998195;28;20019;-30
2022/11/29 07:21:49;;;;;;;10.38;2.88;;;;;;;;;;4997741;28;20074;-31
2022/11/29 07:24:34;;;;;;;12.23;3.63;;;;;;;;;;4998131;28;20038;-31
2022/11/29 07:27:03;;;;;;;9.70;3.10;;;;;;;;;;4998019;28;20468;-32
2022/11/29 07:29:48;;;;;;;15.80;3.42;;;;;;;;;;4997997;28;20030;-31
2022/11/29 07:32:33;;;;;;;7.65;2.40;;;;;;;;;;4997685;28;20450;-32
2022/11/29 07:35:05;;;;;;;12.32;3.10;;;;;;;;;;4998143;28;20379;-31
2022/11/29 07:37:39;;;;;;;9.52;3.20;;;;;;;;;;4997641;28;20034;-31
2022/11/29 07:40:10;;;;;;;13.15;2.88;;;;;;;;;;4997479;28;20042;-31
2022/11/29 07:42:43;;;;;;;9.15;2.65;;;;;;;;;;4997342;28;20034;-30
2022/11/29 07:45:14;;;;;;;8.27;3.45;;;;;;;;;;4997968;28;20473;-31
2022/11/29 07:47:40;;;;;;;15.07;3.75;;;;;;;;;;4997451;28;20038;-32
2022/11/29 07:50:07;;;;;;;15.85;3.63;;;;;;;;;;4997411;28;20022;-32
2022/11/29 07:52:33;;;;;;;8.50;3.63;;;;;;;;;;4997209;28;20026;-31
2022/11/29 07:54:59;;;;;;;6.05;2.72;;;;;;;;;;4997071;28;20106;-31
2022/11/29 07:57:25;;;;;;;11.52;3.03;;;;;;;;;;4997031;28;20026;-30
2022/11/29 07:59:51;;;;;;;13.88;3.65;;;;;;;;;;4997266;28;20030;-31
2022/11/29 08:02:28;;;;;;;7.28;2.95;;;;;;;;;;4995750;28;20030;-31
2022/11/29 08:04:54;;;;;;;5.63;3.05;;;;;;;;;;4997346;28;20034;-31
2022/11/29 08:07:20;;;;;;;15.02;3.65;;;;;;;;;;4997032;28;20050;-32
2022/11/29 08:09:47;;;;;;;16.63;5.35;;;;;;;;;;4996955;28;20034;-31
2022/11/29 08:12:13;;;;;;;7.63;3.92;;;;;;;;;;4996849;28;20113;-31
2022/11/29 08:14:39;;;;;;;18.08;4.10;;;;;;;;;;4997152;28;20084;-31
2022/11/29 08:17:05;;;;;;;9.45;4.15;;;;;;;;;;4997352;28;20114;-31
2022/11/29 08:19:31;;;;;;;12.05;3.65;;;;;;;;;;4996751;28;20044;-31
2022/11/29 08:21:57;;;;;;;10.27;4.18;;;;;;;;;;4996890;28;20026;-31
2022/11/29 08:24:25;;;;;;;14.50;3.67;;;;;;;;;;4996660;28;20504;-31
2022/11/29 08:26:51;;;;;;;21.17;5.72;;;;;;;;;;4996544;28;20408;-32
2022/11/29 08:29:17;;;;;;;9.40;4.18;;;;;;;;;;4996386;28;20049;-32
2022/11/29 08:31:44;;;;;;;14.48;4.45;;;;;;;;;;4996797;28;20027;-31
2022/11/29 08:34:10;;;;;;;12.98;3.83;;;;;;;;;;4995458;28;20101;-32
2022/11/29 08:36:37;;;;;;;10.68;4.38;;;;;;;;;;4996209;28;20085;-32
2022/11/29 08:39:04;;;;;;;7.72;3.95;;;;;;;;;;4996486;28;20040;-32
2022/11/29 08:41:30;;;;;;;10.18;3.80;;;;;;;;;;4996143;28;20054;-32
2022/11/29 08:43:56;;;;;;;10.73;4.32;;;;;;;;;;4996076;28;20034;-32
2022/11/29 08:47:34;;;;;;;9.90;3.58;;;;;;;;;;4996115;28;20401;-31
2022/11/29 08:49:09;;;;;;;14.93;3.85;;;;;;;;;;4995727;28;20042;-31
2022/11/29 08:51:35;;;;;;;17.73;3.70;;;;;;;;;;4996253;28;20026;-31
2022/11/29 08:54:01;;;;;;;15.13;4.88;;;;;;;;;;4995724;28;20026;-30
2022/11/29 08:56:27;;;;;;;11.15;3.92;;;;;;;;;;4996049;28;20027;-31
2022/11/29 08:58:53;;;;;;;16.15;4.40;;;;;;;;;;4994893;28;20050;-30
2022/11/29 09:01:19;;;;;;;14.20;3.42;;;;;;;;;;4994504;28;20035;-31
2022/11/29 09:04:05;;;;;;;12.30;4.50;;;;;;;;;;4995494;28;20127;-30
2022/11/29 09:06:39;;;;;;;17.63;5.18;;;;;;;;;;4996064;28;20031;-30
2022/11/29 09:09:05;;;;;;;14.75;3.95;;;;;;;;;;4995811;28;20061;-31
2022/11/29 09:11:32;;;;;;;8.80;3.80;;;;;;;;;;4995712;28;20027;-32
2022/11/29 09:13:59;;;;;;;11.35;4.45;;;;;;;;;;4995563;28;20046;-31
2022/11/29 09:16:27;;;;;;;15.02;4.88;;;;;;;;;;4994708;28;20037;-31
2022/11/29 09:18:54;;;;;;;8.88;4.03;;;;;;;;;;4995584;28;20045;-30
2022/11/29 09:21:23;;;;;;;11.07;3.95;;;;;;;;;;4995657;28;20022;-30
2022/11/29 09:23:56;;;;;;;6.38;3.72;;;;;;;;;;4995074;28;20358;-32
2022/11/29 09:26:22;;;;;;;16.40;4.15;;;;;;;;;;4995685;28;20269;-32
2022/11/29 09:28:48;;;;;;;10.10;3.88;;;;;;;;;;4996079;28;20450;-32
2022/11/29 09:31:15;;;;;;;12.65;4.00;;;;;;;;;;4995544;28;20066;-28
2022/11/29 09:33:42;;;;;;;9.90;3.58;;;;;;;;;;4995427;28;20030;-32
2022/11/29 09:36:09;;;;;;;6.50;3.65;;;;;;;;;;4995430;28;20046;-32
2022/11/29 09:38:35;;;;;;;10.45;4.60;;;;;;;;;;4995658;28;20037;-32
2022/11/29 09:41:20;;;;;;;13.52;5.38;;;;;;;;;;4995636;28;20347;-31
2022/11/29 09:43:46;;;;;;;10.75;3.53;;;;;;;;;;4995223;28;20041;-31
2022/11/29 09:46:17;;;;;;;9.18;4.10;;;;;;;;;;4995622;28;20038;-32
2022/11/29 09:48:50;;;;;;;12.18;3.88;;;;;;;;;;4994788;28;20031;-31
2022/11/29 09:51:23;;;;;;;9.50;4.05;;;;;;;;;;4995424;28;20030;-32
2022/11/29 09:53:56;;;;;;;12.27;3.85;;;;;;;;;;4995094;28;20034;-30
2022/11/29 09:56:28;;;;;;;8.65;3.38;;;;;;;;;;4995258;28;20030;-32
2022/11/29 09:58:54;;;;;;;7.15;3.45;;;;;;;;;;4994147;28;20069;-31
2022/11/29 10:01:23;;;;;;;10.05;3.72;;;;;;;;;;4995422;28;20149;-31
2022/11/29 10:03:51;;;;;;;7.30;4.47;;;;;;;;;;4994808;28;20047;-30
2022/11/29 10:06:21;;;;;;;11.20;3.63;;;;;;;;;;4995299;28;20132;-31
2022/11/29 10:08:47;;;;;;;7.68;3.10;;;;;;;;;;4995613;28;20556;-32
2022/11/29 10:11:32;;;;;;;11.70;4.65;;;;;;;;;;4994833;28;20035;-31
2022/11/29 10:14:05;;;;;;;10.75;3.55;;;;;;;;;;4995857;28;20053;-32
2022/11/29 10:16:43;;;;;;;16.73;3.58;;;;;;;;;;4999088;28;20030;-32
2022/11/29 10:19:14;;;;;;;9.93;4.63;;;;;;;;;;4998012;28;20089;-35
2022/11/29 10:21:44;;;;;;;12.45;4.10;;;;;;;;;;4999063;28;20105;-32
2022/11/29 10:24:13;;;;;;;11.05;3.92;;;;;;;;;;4998982;28;20461;-32
2022/11/29 10:26:42;;;;;;;8.80;3.70;;;;;;;;;;4998951;28;20034;-33
2022/11/29 10:29:12;;;;;;;17.15;4.70;;;;;;;;;;4998847;28;20030;-31
2022/11/29 10:31:42;;;;;;;15.67;5.57;;;;;;;;;;4998730;28;20049;-32
2022/11/29 10:34:19;;;;;;;11.70;4.57;;;;;;;;;;4998575;28;20026;-31
2022/11/29 10:36:47;;;;;;;11.70;3.47;;;;;;;;;;4998935;28;20152;-32
2022/11/29 10:39:25;;;;;;;12.10;4.20;;;;;;;;;;4998861;28;20342;-32
2022/11/29 10:41:55;;;;;;;12.82;3.53;;;;;;;;;;4998541;28;20026;-32
2022/11/29 10:44:22;;;;;;;12.38;4.10;;;;;;;;;;4998786;28;20026;-31
2022/11/29 10:46:48;;;;;;;19.83;4.43;;;;;;;;;;4998385;28;20034;-31
2022/11/29 10:49:16;;;;;;;8.85;4.03;;;;;;;;;;4998375;28;20113;-30
2022/11/29 10:51:43;;;;;;;21.33;4.45;;;;;;;;;;4997401;28;20102;-32
2022/11/29 10:54:35;;;;;;;10.75;3.75;;;;;;;;;;4998386;28;20037;-32
2022/11/29 10:57:01;;;;;;;15.90;4.68;;;;;;;;;;4995325;28;20413;-31
2022/11/29 10:59:29;;;;;;;12.05;4.70;;;;;;;;;;4998497;28;20109;-31
2022/11/29 11:01:55;;;;;;;12.15;4.15;;;;;;;;;;4997817;28;20023;-32
2022/11/29 11:04:21;;;;;;;18.55;4.75;;;;;;;;;;4997898;28;20050;-32
2022/11/29 11:06:50;;;;;;;17.17;4.68;;;;;;;;;;4997821;28;20026;-31
2022/11/29 11:09:16;;;;;;;16.20;5.85;;;;;;;;;;4998235;28;20335;-31
2022/11/29 11:11:49;;;;;;;15.40;4.95;;;;;;;;;;4998155;28;20508;-31
2022/11/29 11:14:18;;;;;;;13.10;3.80;;;;;;;;;;4998157;28;20026;-30
2022/11/29 11:16:45;;;;;;;16.23;5.18;;;;;;;;;;4997978;28;20084;-30
2022/11/29 11:19:28;;;;;;;8.80;3.42;;;;;;;;;;4997885;28;20115;-31
2022/11/29 11:21:55;;;;;;;16.60;4.32;;;;;;;;;;4997985;28;20022;-32
2022/11/29 11:24:24;;;;;;;15.10;3.70;;;;;;;;;;4997269;28;20062;-31
2022/11/29 11:26:50;;;;;;;15.88;4.68;;;;;;;;;;4997743;28;20053;-30
2022/11/29 11:29:18;;;;;;;7.70;4.10;;;;;;;;;;4997363;28;20033;-30
2022/11/29 11:31:50;;;;;;;13.77;4.65;;;;;;;;;;4997519;28;20080;-30
2022/11/29 11:34:33;;;;;;;23.52;4.95;;;;;;;;;;4997767;28;20365;-31
2022/11/29 11:37:15;;;;;;;13.50;4.50;;;;;;;;;;4997455;28;20034;-31
2022/11/29 11:39:52;;;;;;;7.43;3.65;;;;;;;;;;4997345;28;20029;-31
2022/11/29 11:42:35;;;;;;;27.15;5.22;;;;;;;;;;4997456;28;20042;-31
2022/11/29 11:45:04;;;;;;;12.30;3.70;;;;;;;;;;4997922;28;20026;-31
2022/11/29 11:47:32;;;;;;;6.93;4.15;;;;;;;;;;4997553;28;20054;-31
2022/11/29 11:50:02;;;;;;;10.88;4.95;;;;;;;;;;4997187;28;20105;-31
2022/11/29 11:52:34;;;;;;;16.80;5.32;;;;;;;;;;4997451;28;20125;-31
2022/11/29 11:55:01;;;;;;;12.75;4.72;;;;;;;;;;4997449;28;20345;-31
2022/11/29 11:57:28;;;;;;;15.40;4.03;;;;;;;;;;4997741;28;20026;-31
2022/11/29 11:59:55;;;;;;;20.08;4.50;;;;;;;;;;4997185;28;20465;-32
2022/11/29 12:02:26;;;;;;;20.63;4.32;;;;;;;;;;4996904;28;20038;-31
2022/11/29 12:04:54;;;;;;;22.67;3.60;;;;;;;;;;4997688;28;20034;-31
2022/11/29 12:07:24;;;;;;;12.90;4.20;;;;;;;;;;4997060;28;20117;-31
2022/11/29 12:10:02;;;;;;;10.20;4.68;;;;;;;;;;4996983;28;20041;-31
2022/11/29 12:12:31;;;;;;;22.42;5.30;;;;;;;;;;4997228;28;20022;-32
2022/11/29 12:15:01;;;;;;;12.57;3.92;;;;;;;;;;4997244;28;20019;-32
2022/11/29 12:17:34;;;;;;;9.80;4.03;;;;;;;;;;4997498;28;20037;-31
2022/11/29 12:20:12;;;;;;;16.73;4.07;;;;;;;;;;4996895;28;20450;-31
2022/11/29 12:23:01;;;;;;;15.13;3.75;;;;;;;;;;4997083;28;20038;-32
2022/11/29 12:25:31;;;;;;;15.00;4.55;;;;;;;;;;4960844;28;20046;-32
2022/11/29 12:27:57;;;;;;;14.18;4.82;;;;;;;;;;4996837;28;20412;-32
2022/11/29 12:30:23;;;;;;;15.75;4.30;;;;;;;;;;4996211;28;20097;-31
2022/11/29 12:32:53;;;;;;;19.10;5.03;;;;;;;;;;4996438;28;20070;-29
2022/11/29 12:35:38;;;;;;;15.50;3.92;;;;;;;;;;4996721;28;20026;-31
2022/11/29 12:38:23;;;;;;;12.07;4.50;;;;;;;;;;4994426;28;20080;-30
2022/11/29 12:41:04;;;;;;;16.60;5.50;;;;;;;;;;4996431;28;20363;-31
2022/11/29 12:43:39;;;;;;;22.98;5.50;;;;;;;;;;4996433;28;20113;-31
2022/11/29 12:46:15;;;;;;;22.38;4.75;;;;;;;;;;4996438;28;20026;-30
2022/11/29 12:48:41;;;;;;;12.50;5.13;;;;;;;;;;4996425;28;20056;-30
2022/11/29 12:51:13;;;;;;;19.90;5.63;;;;;;;;;;4995892;28;20030;-30
2022/11/29 12:53:59;;;;;;;18.45;5.22;;;;;;;;;;4995825;28;20034;-30
2022/11/29 12:56:27;;;;;;;24.00;5.72;;;;;;;;;;4995822;28;20125;-33
2022/11/29 12:59:16;;;;;;;21.85;4.43;;;;;;;;;;4996588;28;20034;-30
2022/11/29 13:02:00;;;;;;;21.38;5.22;;;;;;;;;;4995039;28;20049;-32
2022/11/29 13:04:32;;;;;;;17.73;4.55;;;;;;;;;;4994655;28;20061;-31
2022/11/29 13:07:10;;;;;;;18.20;4.55;;;;;;;;;;4996114;28;20030;-31
2022/11/29 13:09:42;;;;;;;7.97;4.60;;;;;;;;;;4994804;28;20038;-31
2022/11/29 13:12:21;;;;;;;20.23;4.03;;;;;;;;;;4995732;28;20030;-31
2022/11/29 13:15:22;;;;;;;11.82;4.00;;;;;;;;;;4996040;28;20030;-30
2022/11/29 13:18:11;;;;;;;15.20;4.70;;;;;;;;;;4917041;29;20480;-30
2022/11/29 13:20:57;;;;;;;17.88;4.18;;;;;;;;;;4980711;28;20038;-31
2022/11/29 13:23:23;;;;;;;13.18;5.05;;;;;;;;;;4994485;28;20053;-31
2022/11/29 13:25:53;;;;;;;18.58;4.28;;;;;;;;;;4995787;28;20041;-30
2022/11/29 13:28:27;;;;;;;13.68;5.70;;;;;;;;;;4995990;28;20030;-32
2022/11/29 13:30:55;;;;;;;10.75;4.63;;;;;;;;;;4994862;28;20037;-31
2022/11/29 13:33:23;;;;;;;17.77;5.07;;;;;;;;;;4995351;28;20022;-30
2022/11/29 13:35:49;;;;;;;21.75;5.22;;;;;;;;;;4995602;28;20022;-31
2022/11/29 13:38:28;;;;;;;13.40;4.47;;;;;;;;;;4995293;28;20030;-30
2022/11/29 13:40:54;;;;;;;16.27;4.38;;;;;;;;;;4995493;28;20057;-31
2022/11/29 13:43:26;;;;;;;19.90;4.43;;;;;;;;;;4995008;28;20027;-30
2022/11/29 13:45:55;;;;;;;23.80;5.90;;;;;;;;;;4995088;28;20038;-31
2022/11/29 13:48:44;;;;;;;24.27;5.47;;;;;;;;;;4995293;28;20033;-31
2022/11/29 13:51:30;;;;;;;31.73;5.22;;;;;;;;;;4985115;28;20112;-32
2022/11/29 13:53:59;;;;;;;17.67;5.60;;;;;;;;;;4994935;28;20026;-32
2022/11/29 13:56:41;;;;;;;14.27;4.88;;;;;;;;;;4994971;28;20030;-33
2022/11/29 13:59:12;;;;;;;12.85;4.70;;;;;;;;;;4994900;28;20031;-32
2022/11/29 14:01:50;;;;;;;16.77;4.32;;;;;;;;;;4995149;28;20109;-32
2022/11/29 14:04:25;;;;;;;9.15;3.75;;;;;;;;;;4994918;28;20056;-31
2022/11/29 14:07:01;;;;;;;19.98;6.30;;;;;;;;;;4995446;28;20133;-33
2022/11/29 14:09:28;;;;;;;10.13;4.32;;;;;;;;;;4995599;28;20026;-32
2022/11/29 14:12:03;;;;;;;19.55;6.90;;;;;;;;;;4994858;28;20062;-31
2022/11/29 14:14:48;;;;;;;11.75;4.05;;;;;;;;;;4994968;28;20038;-31
2022/11/29 14:17:33;;;;;;;11.80;4.00;;;;;;;;;;4994988;28;20034;-32
2022/11/29 14:20:17;;;;;;;20.77;5.68;;;;;;;;;;4995466;28;20054;-33
2022/11/29 14:23:16;;;;;;;17.45;4.70;;;;;;;;;;4995175;28;20026;-32
2022/11/29 14:26:02;;;;;;;13.27;4.05;;;;;;;;;;4952550;28;20533;-32
2022/11/29 14:28:28;;;;;;;11.77;3.95;;;;;;;;;;4994793;28;20023;-31
2022/11/29 14:30:56;;;;;;;12.90;4.30;;;;;;;;;;4994770;28;20038;-31
2022/11/29 14:33:25;;;;;;;16.70;4.53;;;;;;;;;;4994796;28;20033;-33
2022/11/29 14:36:13;;;;;;;15.85;4.28;;;;;;;;;;4995443;28;20349;-32
2022/11/29 14:38:45;;;;;;;21.27;4.45;;;;;;;;;;4994781;28;20037;-31
2022/11/29 14:41:29;;;;;;;14.23;4.20;;;;;;;;;;4994818;28;20041;-30
2022/11/29 14:44:14;;;;;;;11.98;4.35;;;;;;;;;;4994868;28;20102;-30
2022/11/29 14:46:40;;;;;;;9.50;5.05;;;;;;;;;;4995244;28;20034;-30
2022/11/29 14:49:06;;;;;;;21.45;6.20;;;;;;;;;;4993784;28;20049;-30
2022/11/29 14:51:33;;;;;;;15.75;5.18;;;;;;;;;;4994552;28;20515;-32
2022/11/29 14:54:14;;;;;;;15.88;4.45;;;;;;;;;;4977805;28;20123;-31
2022/11/29 14:56:41;;;;;;;10.67;3.80;;;;;;;;;;4977716;28;20034;-30
2022/11/29 14:59:26;;;;;;;18.98;4.60;;;;;;;;;;4994558;28;20029;-30
2022/11/29 15:01:52;;;;;;;13.55;4.82;;;;;;;;;;4998153;28;20022;-30
2022/11/29 15:04:20;;;;;;;14.15;4.53;;;;;;;;;;4998143;28;20065;-31
2022/11/29 15:06:49;;;;;;;11.05;4.55;;;;;;;;;;4998150;28;20042;-30